createdAt,value
2022-10-25T00:00:24.498Z,100836.19
2022-10-25T00:02:50.880Z,100850.78
2022-10-25T00:05:17.280Z,100844.28
2022-10-25T00:07:43.969Z,100840.16
2022-10-25T00:10:10.914Z,100842.53
2022-10-25T00:12:44.631Z,100840.16
2022-10-25T00:15:14.017Z,100840.16
2022-10-25T00:17:41.587Z,100847.91
2022-10-25T00:20:08.915Z,100846.66
2022-10-25T00:22:35.473Z,100841.41
2022-10-25T00:25:01.912Z,100846.94
2022-10-25T00:27:28.546Z,100854.66
2022-10-25T00:29:55.131Z,100852.31
2022-10-25T00:32:21.549Z,100852.31
2022-10-25T00:34:48.129Z,100866.75
2022-10-25T00:37:14.493Z,100863.03
2022-10-25T00:39:41.201Z,100860.09
2022-10-25T00:42:09.672Z,100854.41
2022-10-25T00:44:36.271Z,100869.38
2022-10-25T00:47:11.125Z,100863.75
2022-10-25T00:49:37.766Z,100871.25
2022-10-25T00:52:06.754Z,100870.22
2022-10-25T00:54:37.656Z,100867.72
2022-10-25T00:57:10.030Z,100873.69
2022-10-25T00:59:36.798Z,100869.06
2022-10-25T01:02:03.393Z,100880.00
2022-10-25T01:04:31.513Z,100870.00
2022-10-25T01:06:58.362Z,100880.34
2022-10-25T01:09:30.677Z,100885.72
2022-10-25T01:11:57.052Z,100884.22
2022-10-25T01:14:23.935Z,100888.72
2022-10-25T01:17:08.689Z,100884.97
2022-10-25T01:20:12.752Z,100883.34
2022-10-25T01:22:46.124Z,100886.78
2022-10-25T01:25:50.391Z,100889.34
2022-10-25T01:28:16.684Z,100894.56
2022-10-25T01:30:59.902Z,100882.91
2022-10-25T01:33:47.070Z,100892.97
2022-10-25T01:36:29.752Z,100886.38
2022-10-25T01:39:02.369Z,100893.09
2022-10-25T01:41:49.784Z,100889.50
2022-10-25T01:44:50.497Z,100892.63
2022-10-25T01:47:20.421Z,100895.16
2022-10-25T01:49:49.997Z,100901.59
2022-10-25T01:52:23.834Z,100886.34
2022-10-25T01:54:51.373Z,100895.66
2022-10-25T01:57:39.074Z,100898.28
2022-10-25T02:00:20.561Z,100897.53
2022-10-25T02:03:11.250Z,100896.38
2022-10-25T02:05:55.954Z,100898.63
2022-10-25T02:08:40.833Z,100894.25
2022-10-25T02:11:22.364Z,100892.84
2022-10-25T02:14:07.551Z,100885.72
2022-10-25T02:16:41.011Z,100891.50
2022-10-25T02:19:09.818Z,100896.72
2022-10-25T02:21:37.058Z,100897.63
2022-10-25T02:24:08.217Z,100894.38
2022-10-25T02:26:35.346Z,100912.00
2022-10-25T02:29:03.901Z,100908.22
2022-10-25T02:31:33.043Z,100902.13
2022-10-25T02:33:59.556Z,100902.88
2022-10-25T02:36:25.919Z,100909.56
2022-10-25T02:38:53.038Z,100906.72
2022-10-25T02:41:20.330Z,100913.44
2022-10-25T02:43:46.832Z,100909.75
2022-10-25T02:46:17.426Z,100910.50
2022-10-25T02:48:44.529Z,100909.28
2022-10-25T02:51:11.525Z,100906.88
2022-10-25T02:53:38.619Z,100909.72
2022-10-25T02:56:13.277Z,100913.84
2022-10-25T02:58:41.185Z,100897.25
2022-10-25T03:01:08.076Z,100899.06
2022-10-25T03:03:34.826Z,100910.06
2022-10-25T03:06:01.383Z,100918.00
2022-10-25T03:10:59.606Z,100909.81
2022-10-25T03:13:26.173Z,100916.09
2022-10-25T03:15:52.741Z,100916.56
2022-10-25T03:18:19.194Z,100922.25
2022-10-25T03:20:46.733Z,100921.19
2022-10-25T03:23:13.510Z,100935.84
2022-10-25T03:25:40.442Z,100930.47
2022-10-25T03:28:07.413Z,100928.38
2022-10-25T03:30:34.385Z,100937.25
2022-10-25T03:33:01.123Z,100941.09
2022-10-25T03:35:27.584Z,100937.53
2022-10-25T03:37:54.083Z,100939.47
2022-10-25T03:40:20.952Z,100940.69
2022-10-25T03:42:47.364Z,100940.22
2022-10-25T03:45:13.787Z,100943.97
2022-10-25T03:47:40.536Z,100944.84
2022-10-25T03:50:08.075Z,100946.81
2022-10-25T03:52:34.944Z,100940.69
2022-10-25T03:55:01.790Z,100943.09
2022-10-25T03:57:28.346Z,100939.19
2022-10-25T03:59:54.755Z,100943.22
2022-10-25T04:02:21.164Z,100951.78
2022-10-25T04:04:47.560Z,100953.28
2022-10-25T04:07:13.950Z,100961.94
2022-10-25T04:09:40.472Z,100960.31
2022-10-25T04:12:06.873Z,100963.13
2022-10-25T04:14:33.255Z,100959.69
2022-10-25T04:16:59.787Z,100961.94
2022-10-25T04:19:26.190Z,100959.69
2022-10-25T04:21:52.581Z,100968.81
2022-10-25T04:24:19.053Z,100967.91
2022-10-25T04:26:45.459Z,100956.56
2022-10-25T04:29:12.276Z,100964.03
2022-10-25T04:31:38.665Z,100961.03
2022-10-25T04:34:05.104Z,100954.47
2022-10-25T04:36:31.877Z,100968.50
2022-10-25T04:38:58.438Z,100965.97
2022-10-25T04:41:25.007Z,100962.25
2022-10-25T04:43:52.197Z,100965.66
2022-10-25T04:46:19.814Z,100973.88
2022-10-25T04:48:46.234Z,100973.28
2022-10-25T04:51:13.188Z,100966.84
2022-10-25T04:53:39.696Z,100983.44
2022-10-25T04:56:11.963Z,100975.97
2022-10-25T04:58:38.862Z,100975.97
2022-10-25T05:01:09.875Z,100989.13
2022-10-25T05:03:36.463Z,100982.56
2022-10-25T05:06:14.055Z,100976.91
2022-10-25T05:08:42.143Z,100984.63
2022-10-25T05:11:09.810Z,100976.44
2022-10-25T05:13:37.086Z,100983.44
2022-10-25T05:16:04.172Z,100995.69
2022-10-25T05:18:31.416Z,100995.69
2022-10-25T05:21:01.347Z,100991.81
2022-10-25T05:23:28.562Z,100994.06
2022-10-25T05:26:09.988Z,100994.50
2022-10-25T05:28:38.066Z,101006.44
2022-10-25T05:33:39.996Z,101009.25
2022-10-25T05:36:06.663Z,101004.63
2022-10-25T05:38:36.939Z,101008.69
2022-10-25T05:41:04.915Z,101007.34
2022-10-25T05:43:31.482Z,101010.63
2022-10-25T05:46:03.929Z,101018.69
2022-10-25T05:48:30.363Z,101009.13
2022-10-25T05:51:28.834Z,101019.19
2022-10-25T05:54:22.534Z,101015.72
2022-10-25T06:00:05.925Z,101017.22
2022-10-25T06:02:45.826Z,101022.69
2022-10-25T06:05:12.438Z,101029.25
2022-10-25T06:07:38.870Z,101017.78
2022-10-25T06:10:10.298Z,101033.34
2022-10-25T06:12:37.091Z,101037.22
2022-10-25T06:15:03.874Z,101027.31
2022-10-25T06:17:30.274Z,101041.09
2022-10-25T06:19:56.867Z,101039.75
2022-10-25T06:22:23.401Z,101045.25
2022-10-25T06:24:49.809Z,101048.06
2022-10-25T06:27:16.315Z,101055.22
2022-10-25T06:29:42.708Z,101059.41
2022-10-25T06:32:09.114Z,101063.59
2022-10-25T06:34:35.691Z,101058.34
2022-10-25T06:37:02.083Z,101055.22
2022-10-25T06:39:28.507Z,101059.09
2022-10-25T06:41:54.877Z,101062.28
2022-10-25T06:44:21.292Z,101065.84
2022-10-25T06:49:34.032Z,101076.28
2022-10-25T06:52:00.397Z,101078.22
2022-10-25T06:54:26.999Z,101081.81
2022-10-25T06:56:53.486Z,101088.31
2022-10-25T06:59:20.490Z,101093.06
2022-10-25T07:01:47.729Z,101099.38
2022-10-25T07:04:14.478Z,101106.25
2022-10-25T07:06:41.061Z,101097.56
2022-10-25T07:09:09.329Z,101111.97
2022-10-25T07:11:35.815Z,101107.47
2022-10-25T07:14:04.265Z,101121.84
2022-10-25T07:16:31.137Z,101112.59
2022-10-25T07:19:01.669Z,101114.34
2022-10-25T07:21:29.987Z,101110.19
2022-10-25T07:23:56.497Z,101126.69
2022-10-25T07:26:24.315Z,101129.13
2022-10-25T07:28:51.908Z,101131.06
2022-10-25T07:31:22.053Z,101132.41
2022-10-25T07:33:49.638Z,101132.59
2022-10-25T07:36:16.355Z,101136.19
2022-10-25T07:38:42.772Z,101135.78
2022-10-25T07:41:09.800Z,101142.06
2022-10-25T07:43:36.552Z,101145.81
2022-10-25T07:46:03.740Z,101151.59
2022-10-25T07:48:30.307Z,101152.34
2022-10-25T07:50:56.737Z,101153.16
2022-10-25T07:53:23.308Z,101157.88
2022-10-25T07:55:51.723Z,101160.44
2022-10-25T07:58:18.953Z,101166.41
2022-10-25T08:00:45.392Z,101168.84
2022-10-25T08:03:12.762Z,101170.47
2022-10-25T08:05:40.009Z,101179.00
2022-10-25T08:08:06.476Z,101177.22
2022-10-25T08:10:32.892Z,101185.78
2022-10-25T08:12:59.364Z,101188.63
2022-10-25T08:15:25.803Z,101189.50
2022-10-25T08:18:02.597Z,101188.59
2022-10-25T08:20:49.666Z,101177.53
2022-10-25T08:23:16.083Z,101194.59
2022-10-25T08:25:42.762Z,101193.38
2022-10-25T08:28:09.232Z,101197.59
2022-10-25T08:30:35.736Z,101189.38
2022-10-25T08:33:02.166Z,101193.41
2022-10-25T08:35:28.699Z,101207.94
2022-10-25T08:37:55.210Z,101203.88
2022-10-25T08:40:25.200Z,101215.75
2022-10-25T08:43:04.629Z,101207.78
2022-10-25T08:45:54.973Z,101216.00
2022-10-25T08:48:31.698Z,101214.97
2022-10-25T08:51:04.921Z,101207.31
2022-10-25T08:53:36.021Z,101209.53
2022-10-25T08:56:16.064Z,101209.84
2022-10-25T08:58:47.955Z,101220.06
2022-10-25T09:01:22.823Z,101229.34
2022-10-25T09:03:49.420Z,101229.84
2022-10-25T09:06:21.788Z,101233.28
2022-10-25T09:08:54.112Z,101235.38
2022-10-25T09:11:36.705Z,101226.94
2022-10-25T09:14:03.403Z,101239.38
2022-10-25T09:16:35.880Z,101254.78
2022-10-25T09:19:04.029Z,101254.28
2022-10-25T09:21:42.491Z,101245.22
2022-10-25T09:24:20.801Z,101254.94
2022-10-25T09:27:26.543Z,101258.56
2022-10-25T09:30:10.234Z,101266.22
2022-10-25T09:32:48.368Z,101268.91
2022-10-25T09:35:24.635Z,101270.28
2022-10-25T09:38:01.487Z,101261.06
2022-10-25T09:40:39.242Z,101269.63
2022-10-25T09:43:17.170Z,101273.66
2022-10-25T09:45:56.132Z,101281.88
2022-10-25T09:48:29.302Z,101280.47
2022-10-25T09:51:01.776Z,101273.84
2022-10-25T09:53:28.921Z,101284.34
2022-10-25T09:55:57.665Z,101281.44
2022-10-25T09:58:26.310Z,101294.88
2022-10-25T10:00:54.883Z,101299.53
2022-10-25T10:03:22.770Z,101293.38
2022-10-25T10:05:55.726Z,101300.59
2022-10-25T10:08:22.732Z,101291.59
2022-10-25T10:10:50.400Z,101292.63
2022-10-25T10:13:29.108Z,101298.09
2022-10-25T10:15:58.503Z,101310.84
2022-10-25T10:18:31.899Z,101306.19
2022-10-25T10:21:13.963Z,101318.34
2022-10-25T10:23:53.532Z,101310.38
2022-10-25T10:26:27.224Z,101309.72
2022-10-25T10:29:16.648Z,101311.94
2022-10-25T10:31:47.284Z,101311.03
2022-10-25T10:34:35.038Z,101317.25
2022-10-25T10:37:03.073Z,101310.22
2022-10-25T10:39:29.573Z,101319.63
2022-10-25T10:42:04.443Z,101322.06
2022-10-25T10:44:34.523Z,101327.19
2022-10-25T10:47:02.602Z,101327.22
2022-10-25T10:49:39.237Z,101323.53
2022-10-25T10:52:06.075Z,101322.41
2022-10-25T10:54:39.137Z,101326.25
2022-10-25T10:57:07.033Z,101322.50
2022-10-25T10:59:40.352Z,101327.47
2022-10-25T11:02:35.223Z,101328.19
2022-10-25T11:05:01.776Z,101318.72
2022-10-25T11:07:31.067Z,101328.41
2022-10-25T11:10:22.051Z,101325.47
2022-10-25T11:13:04.757Z,101333.78
2022-10-25T11:15:39.114Z,101344.38
2022-10-25T11:18:06.238Z,101344.69
2022-10-25T11:20:51.126Z,101348.06
2022-10-25T11:23:28.552Z,101336.69
2022-10-25T11:26:02.533Z,101354.63
2022-10-25T11:28:35.000Z,101357.16
2022-10-25T11:31:17.075Z,101351.47
2022-10-25T11:34:09.854Z,101359.06
2022-10-25T11:36:45.904Z,101360.66
2022-10-25T11:39:36.159Z,101358.00
2022-10-25T11:42:21.635Z,101362.03
2022-10-25T11:45:13.205Z,101362.56
2022-10-25T11:47:48.714Z,101364.34
2022-10-25T11:50:33.394Z,101365.22
2022-10-25T11:53:37.512Z,101360.81
2022-10-25T11:56:44.144Z,101370.66
2022-10-25T11:59:22.449Z,101364.00
2022-10-25T12:02:03.319Z,101369.13
2022-10-25T12:04:48.515Z,101369.50
2022-10-25T12:07:33.735Z,101365.84
2022-10-25T12:10:15.096Z,101356.00
2022-10-25T12:12:51.108Z,101360.78
2022-10-25T12:15:23.681Z,101362.53
2022-10-25T12:17:50.899Z,101370.59
2022-10-25T12:20:22.022Z,101363.81
2022-10-25T12:22:50.730Z,101362.44
2022-10-25T12:25:28.181Z,101367.28
2022-10-25T12:28:23.005Z,101379.44
2022-10-25T12:30:50.936Z,101378.94
2022-10-25T12:33:42.668Z,101385.00
2022-10-25T12:36:21.861Z,101372.16
2022-10-25T12:38:48.284Z,101379.16
2022-10-25T12:41:23.737Z,101387.84
2022-10-25T12:44:38.235Z,101388.66
2022-10-25T12:47:23.315Z,101387.94
2022-10-25T12:49:57.276Z,101384.00
2022-10-25T12:52:35.475Z,101382.81
2022-10-25T12:55:26.878Z,101381.31
2022-10-25T12:58:18.121Z,101391.44
2022-10-25T13:00:56.520Z,101387.16
2022-10-25T13:03:32.603Z,101405.78
2022-10-25T13:06:13.195Z,101387.56
2022-10-25T13:08:40.504Z,101396.91
2022-10-25T13:11:08.315Z,101397.00
2022-10-25T13:13:39.095Z,101388.41
2022-10-25T13:16:08.675Z,101386.53
2022-10-25T13:18:35.029Z,101401.38
2022-10-25T13:21:03.434Z,101384.66
2022-10-25T13:23:56.109Z,101392.06
2022-10-25T13:30:03.285Z,101398.88
2022-10-25T13:32:43.481Z,101400.31
2022-10-25T13:35:22.480Z,101402.59
2022-10-25T13:38:06.038Z,101394.69
2022-10-25T13:40:32.685Z,101399.91
2022-10-25T13:43:07.554Z,101399.34
2022-10-25T13:45:41.361Z,101394.81
2022-10-25T13:48:15.921Z,101394.66
2022-10-25T13:50:57.040Z,101401.22
2022-10-25T13:53:30.248Z,101398.66
2022-10-25T13:56:04.610Z,101402.47
2022-10-25T13:58:32.272Z,101410.25
2022-10-25T14:01:19.093Z,101406.69
2022-10-25T14:03:48.445Z,101408.50
2022-10-25T14:06:33.119Z,101410.88
2022-10-25T14:09:09.737Z,101409.75
2022-10-25T14:11:47.283Z,101411.06
2022-10-25T14:14:44.447Z,101423.22
2022-10-25T14:17:29.753Z,101400.66
2022-10-25T14:20:03.723Z,101405.66
2022-10-25T14:22:34.830Z,101409.63
2022-10-25T14:25:19.741Z,101410.06
2022-10-25T14:27:46.202Z,101405.22
2022-10-25T14:30:24.950Z,101404.69
2022-10-25T14:32:56.116Z,101401.53
2022-10-25T14:35:24.929Z,101405.91
2022-10-25T14:37:51.445Z,101395.47
2022-10-25T14:40:29.493Z,101397.97
2022-10-25T14:42:56.799Z,101402.34
2022-10-25T14:45:25.484Z,101397.28
2022-10-25T14:47:52.544Z,101405.06
2022-10-25T14:50:23.786Z,101399.41
2022-10-25T14:52:51.528Z,101388.19
2022-10-25T14:55:28.840Z,101386.97
2022-10-25T14:57:55.391Z,101393.88
2022-10-25T15:00:23.084Z,101395.69
2022-10-25T15:02:54.584Z,101395.38
2022-10-25T15:05:22.648Z,101395.97
2022-10-25T15:07:54.441Z,101396.59
2022-10-25T15:10:30.166Z,101405.91
2022-10-25T15:13:02.842Z,101397.06
2022-10-25T15:15:38.430Z,101396.00
2022-10-25T15:18:05.108Z,101404.88
2022-10-25T15:20:34.458Z,101399.63
2022-10-25T15:23:06.277Z,101402.28
2022-10-25T15:25:37.070Z,101403.06
2022-10-25T15:28:20.496Z,101401.72
2022-10-25T15:30:49.917Z,101406.47
2022-10-25T15:33:20.430Z,101405.38
2022-10-25T15:36:05.760Z,101406.72
2022-10-25T15:39:05.432Z,101403.38
2022-10-25T15:41:21.966Z,101402.41
2022-10-25T15:43:48.418Z,101406.72
2022-10-25T15:46:33.161Z,101408.38
2022-10-25T15:49:01.597Z,101399.00
2022-10-25T15:51:31.004Z,101407.19
2022-10-25T15:53:57.830Z,101411.84
2022-10-25T15:56:24.297Z,101414.81
2022-10-25T15:58:51.263Z,101412.06
2022-10-25T16:01:18.304Z,101413.03
2022-10-25T16:03:44.965Z,101408.22
2022-10-25T16:06:14.492Z,101408.75
2022-10-25T16:08:41.965Z,101408.75
2022-10-25T16:11:14.501Z,101410.28
2022-10-25T16:13:41.925Z,101411.66
2022-10-25T16:16:35.229Z,101409.44
2022-10-25T16:19:03.658Z,101401.41
2022-10-25T16:21:30.286Z,101405.91
2022-10-25T16:23:56.735Z,101410.97
2022-10-25T16:26:28.423Z,101420.19
2022-10-25T16:28:55.056Z,101422.81
2022-10-25T16:31:22.595Z,101429.56
2022-10-25T16:33:49.015Z,101436.84
2022-10-25T16:36:15.548Z,101434.94
2022-10-25T16:38:42.012Z,101434.94
2022-10-25T16:41:26.709Z,101443.00
2022-10-25T16:43:53.137Z,101442.56
2022-10-25T16:46:19.576Z,101438.16
2022-10-25T16:48:46.307Z,101430.22
2022-10-25T16:51:17.137Z,101428.16
2022-10-25T16:53:44.727Z,101436.97
2022-10-25T16:56:11.527Z,101438.72
2022-10-25T16:58:38.616Z,101433.81
2022-10-25T17:01:19.733Z,101451.97
2022-10-25T17:03:52.839Z,101444.56
2022-10-25T17:09:06.662Z,101432.59
2022-10-25T17:11:33.078Z,101431.38
2022-10-25T17:13:59.478Z,101427.09
2022-10-25T17:16:25.925Z,101427.59
2022-10-25T17:18:52.423Z,101425.22
2022-10-25T17:21:18.947Z,101438.28
2022-10-25T17:23:45.510Z,101437.25
2022-10-25T17:26:12.058Z,101434.72
2022-10-25T17:28:43.020Z,101432.63
2022-10-25T17:31:12.605Z,101427.84
2022-10-25T17:33:39.183Z,101439.00
2022-10-25T17:36:07.840Z,101428.47
2022-10-25T17:38:34.321Z,101442.94
2022-10-25T17:41:00.892Z,101442.38
2022-10-25T17:43:27.348Z,101438.03
2022-10-25T17:45:59.556Z,101447.81
2022-10-25T17:48:25.987Z,101452.75
2022-10-25T17:50:52.414Z,101456.03
2022-10-25T17:53:18.837Z,101452.66
2022-10-25T17:55:45.265Z,101448.97
2022-10-25T17:58:13.007Z,101451.84
2022-10-25T18:00:39.446Z,101451.34
2022-10-25T18:03:05.845Z,101461.31
2022-10-25T18:05:32.262Z,101469.66
2022-10-25T18:07:58.670Z,101464.72
2022-10-25T18:10:25.743Z,101467.31
2022-10-25T18:12:52.146Z,101475.66
2022-10-25T18:15:18.633Z,101462.72
2022-10-25T18:17:46.932Z,101477.09
2022-10-25T18:20:13.938Z,101473.34
2022-10-25T18:22:40.660Z,101463.50
2022-10-25T18:25:07.852Z,101469.03
2022-10-25T18:27:34.365Z,101473.44
2022-10-25T18:30:00.842Z,101471.56
2022-10-25T18:32:33.580Z,101465.31
2022-10-25T18:35:02.767Z,101465.16
2022-10-25T18:37:29.846Z,101462.13
2022-10-25T18:39:56.243Z,101464.97
2022-10-25T18:42:22.715Z,101467.53
2022-10-25T18:44:50.476Z,101462.03
2022-10-25T18:47:16.914Z,101451.47
2022-10-25T18:49:43.386Z,101451.06
2022-10-25T18:52:09.948Z,101461.63
2022-10-25T18:54:36.381Z,101462.03
2022-10-25T18:57:03.103Z,101463.97
2022-10-25T18:59:29.527Z,101466.38
2022-10-25T19:01:56.456Z,101448.59
2022-10-25T19:08:11.719Z,101463.72
2022-10-25T19:10:40.047Z,101462.75
2022-10-25T19:13:07.116Z,101466.59
2022-10-25T19:15:33.714Z,101465.53
2022-10-25T19:18:37.570Z,101467.13
2022-10-25T19:21:06.679Z,101469.81
2022-10-25T19:23:33.255Z,101461.44
2022-10-25T19:26:07.695Z,101453.38
2022-10-25T19:28:34.873Z,101465.16
2022-10-25T19:31:09.368Z,101459.06
2022-10-25T19:33:35.983Z,101453.53
2022-10-25T19:36:11.934Z,101459.22
2022-10-25T19:38:38.769Z,101463.47
2022-10-25T19:41:07.661Z,101459.69
2022-10-25T19:43:34.064Z,101454.81
2022-10-25T19:46:02.288Z,101446.59
2022-10-25T19:48:28.826Z,101453.06
2022-10-25T19:50:55.581Z,101451.44
2022-10-25T19:53:22.199Z,101459.97
2022-10-25T19:56:02.287Z,101466.19
2022-10-25T19:58:29.033Z,101461.75
2022-10-25T20:01:10.469Z,101464.41
2022-10-25T20:03:38.032Z,101458.41
2022-10-25T20:06:07.997Z,101464.25
2022-10-25T20:08:35.897Z,101468.91
2022-10-25T20:11:02.686Z,101465.28
2022-10-25T20:13:29.102Z,101448.53
2022-10-25T20:15:56.852Z,101462.81
2022-10-25T20:18:25.439Z,101469.00
2022-10-25T20:20:57.484Z,101470.31
2022-10-25T20:23:23.965Z,101471.63
2022-10-25T20:25:50.396Z,101473.50
2022-10-25T20:28:16.862Z,101461.56
2022-10-25T20:30:43.311Z,101469.75
2022-10-25T20:33:09.926Z,101469.41
2022-10-25T20:35:41.125Z,101466.75
2022-10-25T20:38:08.347Z,101473.75
2022-10-25T20:40:34.977Z,101470.72
2022-10-25T20:43:01.607Z,101478.63
2022-10-25T20:45:28.889Z,101489.00
2022-10-25T20:47:56.249Z,101486.69
2022-10-25T20:50:23.193Z,101487.81
2022-10-25T20:53:09.255Z,101483.22
2022-10-25T20:55:36.208Z,101493.56
2022-10-25T20:58:02.615Z,101485.97
2022-10-25T21:00:29.021Z,101476.94
2022-10-25T21:02:55.441Z,101489.16
2022-10-25T21:05:21.867Z,101490.66
2022-10-25T21:07:48.531Z,101490.22
2022-10-25T21:10:15.267Z,101495.94
2022-10-25T21:12:41.677Z,101491.44
2022-10-25T21:15:11.863Z,101488.41
2022-10-25T21:17:38.849Z,101485.34
2022-10-25T21:20:05.818Z,101492.31
2022-10-25T21:22:32.248Z,101494.19
2022-10-25T21:24:58.679Z,101482.53
2022-10-25T21:27:25.273Z,101488.63
2022-10-25T21:29:51.709Z,101481.03
2022-10-25T21:32:18.135Z,101482.56
2022-10-25T21:34:44.607Z,101488.22
2022-10-25T21:37:11.004Z,101487.81
2022-10-25T21:39:37.573Z,101485.44
2022-10-25T21:42:04.134Z,101488.41
2022-10-25T21:44:30.530Z,101485.66
2022-10-25T21:46:56.960Z,101500.59
2022-10-25T21:49:23.444Z,101489.81
2022-10-25T21:51:49.885Z,101488.34
2022-10-25T21:54:16.335Z,101497.47
2022-10-25T21:56:42.745Z,101486.00
2022-10-25T21:59:09.220Z,101493.66
2022-10-25T22:01:35.766Z,101494.44
2022-10-25T22:04:02.258Z,101494.44
2022-10-25T22:06:29.107Z,101489.31
2022-10-25T22:08:55.971Z,101500.78
2022-10-25T22:11:25.114Z,101497.94
2022-10-25T22:13:56.551Z,101487.31
2022-10-25T22:16:23.546Z,101485.91
2022-10-25T22:18:53.669Z,101481.34
2022-10-25T22:21:21.171Z,101475.72
2022-10-25T22:23:47.647Z,101480.31
2022-10-25T22:26:16.215Z,101479.31
2022-10-25T22:28:42.673Z,101485.72
2022-10-25T22:31:14.535Z,101487.75
2022-10-25T22:33:41.491Z,101479.69
2022-10-25T22:36:09.640Z,101482.50
2022-10-25T22:38:36.315Z,101479.00
2022-10-25T22:41:05.474Z,101471.16
2022-10-25T22:43:34.094Z,101481.06
2022-10-25T22:46:01.373Z,101487.63
2022-10-25T22:48:31.903Z,101469.69
2022-10-25T22:50:58.337Z,101464.69
2022-10-25T22:53:24.906Z,101468.94
2022-10-25T22:56:27.515Z,101471.16
2022-10-25T22:58:59.858Z,101459.31
2022-10-25T23:01:28.672Z,101469.56
2022-10-25T23:03:56.346Z,101469.56
2022-10-25T23:06:24.926Z,101466.56
2022-10-25T23:08:55.874Z,101462.78
2022-10-25T23:11:27.861Z,101464.47
2022-10-25T23:13:54.402Z,101458.63
2022-10-25T23:16:21.027Z,101456.81
2022-10-25T23:18:47.473Z,101465.22
2022-10-25T23:21:19.752Z,101460.59
2022-10-25T23:23:46.917Z,101473.75
2022-10-25T23:26:17.483Z,101461.41
2022-10-25T23:28:44.044Z,101469.06
2022-10-25T23:31:11.633Z,101468.34
2022-10-25T23:33:38.588Z,101467.91
2022-10-25T23:36:09.397Z,101468.63
2022-10-25T23:38:36.676Z,101458.38
2022-10-25T23:41:03.892Z,101463.66
2022-10-25T23:43:30.612Z,101464.50
2022-10-25T23:45:57.058Z,101458.38
2022-10-25T23:48:23.696Z,101461.50
2022-10-25T23:51:17.036Z,101460.34
2022-10-25T23:53:43.647Z,101463.06
2022-10-25T23:56:11.662Z,101453.28
2022-10-25T23:58:38.384Z,101454.81
